Time;durP1;ratioP1;P1;durP2;ratioP2;P2;SDS_P1;SDS_P2;PMS_P1;PMS_P2;Temp;Humidity;BMP_temperature;BMP_pressure;BME280_temperature;BME280_humidity;BME280_pressure;Samples;Min_cycle;Max_cycle;Signal;HPM_P1;HPM_P2
2021/05/02 00:00:22;;;;;;;8.38;7.63;;;11.70;99.90;11.60;99353.00;;;;342308;28;92631;-88
2021/05/02 00:00:35;;;;;;;8.88;8.07;;;11.70;99.90;11.70;99354.00;;;;342716;28;84852;-88
2021/05/02 00:00:47;;;;;;;8.43;7.63;;;11.60;99.90;11.60;99349.00;;;;341104;28;90421;-88
2021/05/02 00:00:58;;;;;;;7.80;7.10;;;11.70;99.90;11.60;99346.00;;;;342681;28;84041;-88
2021/05/02 00:01:09;;;;;;;8.45;7.65;;;11.70;99.90;11.70;99348.00;;;;345168;28;90873;-88
2021/05/02 00:01:21;;;;;;;8.52;7.82;;;11.60;99.90;11.70;99352.00;;;;345314;28;82730;-88
2021/05/02 00:01:33;;;;;;;8.60;7.88;;;11.60;99.90;11.80;99352.00;;;;345237;28;91074;-87
2021/05/02 00:01:47;;;;;;;8.48;7.72;;;11.60;99.90;11.70;99348.00;;;;344253;28;84529;-88
2021/05/02 00:01:58;;;;;;;8.68;7.85;;;11.60;99.90;11.70;99351.00;;;;340552;28;90506;-88
2021/05/02 00:02:10;;;;;;;9.07;8.00;;;11.60;99.90;11.50;99348.00;;;;342857;28;84031;-87
2021/05/02 00:02:21;;;;;;;9.68;7.90;;;11.60;99.90;11.40;99347.00;;;;342436;28;93038;-88
2021/05/02 00:02:34;;;;;;;8.65;7.35;;;11.60;99.90;11.50;99347.00;;;;344691;28;83913;-88
2021/05/02 00:02:46;;;;;;;8.07;7.28;;;11.50;99.90;11.40;99343.00;;;;343582;28;91040;-88
2021/05/02 00:02:58;;;;;;;8.43;7.63;;;11.50;99.90;11.40;99349.00;;;;344211;28;83366;-88
2021/05/02 00:03:10;;;;;;;8.63;7.75;;;11.50;99.90;11.50;99350.00;;;;343670;28;89982;-88
2021/05/02 00:03:22;;;;;;;8.63;7.47;;;11.40;99.90;11.50;99349.00;;;;344771;28;85021;-88
2021/05/02 00:03:34;;;;;;;10.27;7.50;;;11.50;99.90;11.50;99347.00;;;;342530;28;91797;-87
2021/05/02 00:03:46;;;;;;;9.40;7.70;;;11.50;99.90;11.50;99350.00;;;;340187;28;85142;-88
2021/05/02 00:03:57;;;;;;;8.95;7.72;;;11.50;99.90;11.60;99352.00;;;;343611;28;89669;-87
2021/05/02 00:04:08;;;;;;;8.50;7.68;;;11.40;99.90;11.60;99354.00;;;;342750;28;84557;-87
2021/05/02 00:04:20;;;;;;;8.70;7.63;;;11.50;99.90;11.70;99357.00;;;;345178;28;92368;-87
2021/05/02 00:04:31;;;;;;;8.56;7.62;;;11.50;99.90;11.60;99342.00;;;;344042;28;84974;-88
2021/05/02 00:04:43;;;;;;;8.52;7.50;;;11.50;99.90;11.50;99350.00;;;;343714;28;89620;-87
2021/05/02 00:04:54;;;;;;;8.45;7.63;;;11.50;99.90;11.70;99347.00;;;;342822;28;84877;-88
2021/05/02 00:05:06;;;;;;;7.63;6.93;;;11.50;99.90;11.80;99348.00;;;;343859;28;92055;-89
2021/05/02 00:05:19;;;;;;;7.43;6.75;;;11.50;99.90;11.80;99361.00;;;;342767;28;84045;-88
2021/05/02 00:05:33;;;;;;;7.75;7.05;;;11.50;99.90;11.90;99353.00;;;;346371;28;94683;-88
2021/05/02 00:05:44;;;;;;;8.25;7.55;;;11.50;99.90;11.80;99349.00;;;;344017;28;82985;-88
2021/05/02 00:05:56;;;;;;;8.68;7.88;;;11.60;99.90;11.60;99347.00;;;;343776;28;90547;-88
2021/05/02 00:06:08;;;;;;;8.02;7.32;;;11.50;99.90;11.40;99363.00;;;;342798;28;83645;-88
2021/05/02 00:06:19;;;;;;;8.10;7.38;;;11.50;99.90;11.40;99358.00;;;;342741;28;91507;-88
2021/05/02 00:06:31;;;;;;;7.53;6.82;;;11.50;99.90;11.40;99364.00;;;;344167;28;84996;-88
2021/05/02 00:06:43;;;;;;;7.70;7.00;;;11.50;99.90;11.40;99356.00;;;;342429;28;92622;-88
2021/05/02 00:06:54;;;;;;;7.82;7.07;;;11.50;99.90;11.30;99359.00;;;;344145;28;85390;-89
2021/05/02 00:07:05;;;;;;;8.05;7.35;;;11.50;99.90;11.30;99348.00;;;;342480;28;92452;-88
2021/05/02 00:07:17;;;;;;;7.93;7.22;;;11.50;99.90;11.30;99361.00;;;;342791;28;84833;-88
2021/05/02 00:07:29;;;;;;;8.02;7.32;;;11.50;99.90;11.30;99363.00;;;;342513;28;91788;-87
2021/05/02 00:07:41;;;;;;;8.00;7.30;;;11.40;99.90;11.20;99356.00;;;;345677;28;83376;-88
2021/05/02 00:07:52;;;;;;;8.27;7.57;;;11.40;99.90;11.20;99358.00;;;;342497;28;91991;-89
2021/05/02 00:08:04;;;;;;;8.25;7.55;;;11.40;99.90;11.20;99363.00;;;;345478;28;85018;-88
2021/05/02 00:08:15;;;;;;;8.27;7.57;;;11.40;99.90;11.30;99359.00;;;;341870;28;91374;-89
2021/05/02 00:08:27;;;;;;;8.32;7.63;;;11.30;99.90;11.30;99355.00;;;;341834;28;84217;-89
2021/05/02 00:08:39;;;;;;;8.57;7.80;;;11.30;99.90;11.20;99357.00;;;;345013;28;91792;-88
2021/05/02 00:08:50;;;;;;;8.77;7.88;;;11.30;99.90;11.20;99358.00;;;;342128;28;83599;-88
2021/05/02 00:09:02;;;;;;;8.75;7.85;;;11.30;99.90;11.30;99354.00;;;;341163;28;91328;-88
2021/05/02 00:09:13;;;;;;;8.68;7.80;;;11.30;99.90;11.30;99354.00;;;;343918;28;83512;-88
2021/05/02 00:09:24;;;;;;;8.75;7.88;;;11.30;99.90;11.30;99357.00;;;;343590;28;91066;-89
2021/05/02 00:09:36;;;;;;;9.55;8.00;;;11.30;99.90;11.30;99350.00;;;;344262;28;83481;-88
2021/05/02 00:09:47;;;;;;;9.18;7.88;;;11.30;99.90;11.20;99359.00;;;;342215;28;91423;-88
2021/05/02 00:09:59;;;;;;;8.75;7.88;;;11.30;99.90;11.20;99353.00;;;;342822;28;84254;-88
2021/05/02 00:10:11;;;;;;;8.35;7.65;;;11.30;99.90;11.20;99359.00;;;;343783;28;93224;-89
2021/05/02 00:10:23;;;;;;;8.52;7.80;;;11.20;99.90;11.20;99359.00;;;;342793;28;83576;-88
2021/05/02 00:10:35;;;;;;;8.82;7.97;;;11.20;99.90;11.20;99362.00;;;;342492;28;91819;-89
2021/05/02 00:10:46;;;;;;;9.18;8.25;;;11.20;99.90;11.20;99364.00;;;;341404;28;85166;-87
2021/05/02 00:10:58;;;;;;;9.18;8.27;;;11.20;99.90;11.20;99355.00;;;;342456;28;92457;-88
2021/05/02 00:11:10;;;;;;;9.60;8.40;;;11.20;99.90;11.10;99355.00;;;;343027;28;84547;-88
2021/05/02 00:11:21;;;;;;;9.32;8.27;;;11.20;99.90;11.10;99359.00;;;;341662;28;91142;-88
2021/05/02 00:11:33;;;;;;;9.00;8.15;;;11.20;99.90;11.20;99359.00;;;;342768;28;84610;-89
2021/05/02 00:11:44;;;;;;;9.00;8.20;;;11.20;99.90;11.20;99356.00;;;;345131;28;90987;-89
2021/05/02 00:11:57;;;;;;;8.85;8.05;;;11.20;99.90;11.20;99363.00;;;;345613;28;84580;-88
2021/05/02 00:12:08;;;;;;;8.50;7.70;;;11.20;99.90;11.10;99364.00;;;;345377;28;90432;-87
2021/05/02 00:12:20;;;;;;;8.63;7.72;;;11.20;99.90;11.10;99360.00;;;;346131;28;85234;-88
2021/05/02 00:12:31;;;;;;;8.68;7.88;;;11.20;99.90;11.00;99363.00;;;;345363;28;90708;-88
2021/05/02 00:12:43;;;;;;;8.93;8.10;;;11.20;99.90;10.90;99361.00;;;;345540;28;83805;-88
2021/05/02 00:12:56;;;;;;;9.07;8.18;;;11.10;99.90;10.90;99358.00;;;;344013;28;91847;-87
2021/05/02 00:13:08;;;;;;;8.95;8.05;;;11.10;99.90;11.00;99360.00;;;;342947;28;85059;-88
2021/05/02 00:13:20;;;;;;;8.93;8.07;;;11.10;99.90;11.00;99360.00;;;;339738;28;92549;-88
2021/05/02 00:13:31;;;;;;;8.68;7.88;;;11.10;99.90;11.00;99366.00;;;;347101;28;84965;-88
2021/05/02 00:13:43;;;;;;;8.40;7.60;;;11.00;99.90;11.00;99365.00;;;;345468;28;88053;-88
2021/05/02 00:13:54;;;;;;;7.95;7.22;;;11.00;99.90;11.00;99360.00;;;;342955;28;85088;-89
2021/05/02 00:14:06;;;;;;;8.06;7.36;;;11.00;99.90;11.00;99364.00;;;;343562;28;93336;-91
2021/05/02 00:14:17;;;;;;;8.07;7.38;;;11.00;99.90;11.10;99355.00;;;;342711;28;83441;-88
2021/05/02 00:14:28;;;;;;;8.05;7.35;;;11.00;99.90;11.00;99365.00;;;;343529;28;92141;-88
2021/05/02 00:14:40;;;;;;;7.88;7.18;;;11.00;99.90;11.00;99354.00;;;;344246;28;83576;-87
2021/05/02 00:14:51;;;;;;;8.20;7.40;;;11.00;99.90;10.90;99362.00;;;;342149;28;90755;-88
2021/05/02 00:15:05;;;;;;;8.45;7.72;;;11.00;99.90;10.90;99356.00;;;;345694;28;83644;-87
2021/05/02 00:15:20;;;;;;;8.93;8.15;;;11.00;99.90;10.90;99361.00;;;;345299;28;91233;-88
2021/05/02 00:15:31;;;;;;;8.38;7.63;;;11.00;99.90;11.00;99349.00;;;;341536;28;83903;-88
2021/05/02 00:15:43;;;;;;;8.68;7.88;;;11.00;99.90;11.10;99360.00;;;;341306;28;92093;-88
2021/05/02 00:15:54;;;;;;;8.82;8.02;;;10.90;99.90;11.00;99362.00;;;;341553;28;84732;-88
2021/05/02 00:16:06;;;;;;;8.90;8.00;;;11.00;99.90;11.00;99363.00;;;;342457;28;92982;-88
2021/05/02 00:16:17;;;;;;;8.48;7.65;;;11.00;99.90;10.90;99356.00;;;;342961;28;83815;-88
2021/05/02 00:16:29;;;;;;;8.30;7.53;;;11.00;99.90;10.90;99365.00;;;;343968;28;92052;-89
2021/05/02 00:16:49;;;;;;;9.23;8.32;;;10.90;99.90;10.80;99354.00;;;;341635;28;85093;-88
2021/05/02 00:17:00;;;;;;;9.25;8.35;;;10.90;99.90;10.80;99362.00;;;;345244;28;90844;-88
2021/05/02 00:17:12;;;;;;;9.00;8.13;;;10.90;99.90;10.80;99358.00;;;;344189;28;85278;-89
2021/05/02 00:17:25;;;;;;;8.45;7.65;;;10.90;99.90;10.80;99364.00;;;;343483;28;91554;-89
2021/05/02 00:17:37;;;;;;;8.15;7.40;;;10.90;99.90;11.00;99361.00;;;;345491;28;83832;-89
2021/05/02 00:17:50;;;;;;;8.25;7.50;;;10.90;99.90;11.00;99369.00;;;;342380;28;91478;-88
2021/05/02 00:18:02;;;;;;;8.63;7.82;;;10.90;99.90;11.10;99371.00;;;;342834;28;83725;-87
2021/05/02 00:18:13;;;;;;;8.60;7.80;;;10.90;99.90;11.00;99362.00;;;;341117;28;91561;-88
2021/05/02 00:18:28;;;;;;;8.48;7.63;;;10.90;99.90;10.90;99360.00;;;;341453;28;83476;-89
2021/05/02 00:18:39;;;;;;;8.70;7.80;;;10.90;99.90;10.90;99360.00;;;;343741;28;92261;-88
2021/05/02 00:18:51;;;;;;;8.63;7.82;;;10.80;99.90;11.10;99361.00;;;;341421;28;84805;-88
2021/05/02 00:19:06;;;;;;;8.55;7.75;;;10.90;99.90;11.00;99360.00;;;;343863;28;91215;-87
2021/05/02 00:19:19;;;;;;;8.73;7.82;;;10.90;99.90;10.80;99356.00;;;;344124;28;84911;-88
2021/05/02 00:19:30;;;;;;;9.00;8.10;;;10.90;99.90;10.80;99367.00;;;;345248;28;91158;-88
2021/05/02 00:19:42;;;;;;;9.35;8.45;;;10.90;99.90;11.00;99357.00;;;;342914;28;85131;-88
2021/05/02 00:19:54;;;;;;;8.93;8.13;;;10.80;99.90;10.80;99360.00;;;;343755;28;90922;-88
2021/05/02 00:20:07;;;;;;;9.00;8.20;;;10.80;99.90;10.70;99366.00;;;;344070;28;82647;-89
2021/05/02 00:20:20;;;;;;;8.38;7.57;;;10.80;99.90;10.80;99365.00;;;;345255;28;92295;-87
2021/05/02 00:20:32;;;;;;;8.43;7.65;;;10.80;99.90;10.80;99369.00;;;;344295;28;82500;-88
2021/05/02 00:20:43;;;;;;;9.30;8.50;;;10.70;99.90;10.80;99367.00;;;;343675;28;89743;-88
2021/05/02 00:20:56;;;;;;;9.43;8.63;;;10.80;99.90;10.90;99359.00;;;;342803;28;87169;-88
2021/05/02 00:21:11;;;;;;;8.80;7.97;;;10.80;99.90;10.80;99364.00;;;;343840;28;92291;-87
2021/05/02 00:21:23;;;;;;;9.40;7.97;;;10.70;99.90;10.70;99367.00;;;;345179;28;84429;-88
2021/05/02 00:21:35;;;;;;;9.15;7.93;;;10.70;99.90;10.70;99358.00;;;;342589;28;88417;-89
2021/05/02 00:21:47;;;;;;;8.80;7.95;;;10.70;99.90;10.70;99356.00;;;;342891;28;83431;-87
2021/05/02 00:21:58;;;;;;;8.52;7.72;;;10.70;99.90;10.90;99357.00;;;;343726;28;90846;-88
2021/05/02 00:22:10;;;;;;;8.32;7.53;;;10.70;99.90;11.00;99356.00;;;;342853;28;84997;-88
2021/05/02 00:22:22;;;;;;;8.20;7.40;;;10.70;99.90;10.90;99362.00;;;;342345;28;93013;-88
2021/05/02 00:22:34;;;;;;;8.18;7.38;;;10.70;99.90;10.90;99361.00;;;;345510;28;85211;-88
2021/05/02 00:22:48;;;;;;;8.75;7.85;;;10.70;99.90;10.90;99354.00;;;;343903;28;89478;-89
2021/05/02 00:23:03;;;;;;;8.77;7.82;;;10.70;99.90;11.10;99368.00;;;;344218;28;85191;-88
2021/05/02 00:23:14;;;;;;;8.13;7.32;;;10.70;99.90;11.00;99358.00;;;;342269;28;91882;-89
2021/05/02 00:23:26;;;;;;;8.05;7.25;;;10.80;99.90;10.90;99352.00;;;;345397;28;83554;-88
2021/05/02 00:23:39;;;;;;;7.55;6.80;;;10.80;99.90;10.90;99352.00;;;;343918;28;91765;-88
2021/05/02 00:23:50;;;;;;;7.78;6.88;;;10.80;99.90;11.00;99363.00;;;;343422;28;85042;-87
2021/05/02 00:24:03;;;;;;;7.72;6.60;;;10.80;99.90;11.10;99368.00;;;;342413;28;91601;-88
2021/05/02 00:24:14;;;;;;;7.25;6.55;;;10.70;99.90;11.00;99358.00;;;;345532;28;85136;-88
2021/05/02 00:24:26;;;;;;;7.75;7.05;;;10.80;99.90;11.10;99364.00;;;;342281;28;93141;-89
2021/05/02 00:24:38;;;;;;;7.88;7.18;;;10.80;99.90;11.00;99360.00;;;;342802;28;83437;-87
2021/05/02 00:24:49;;;;;;;7.70;7.00;;;10.80;99.90;11.00;99359.00;;;;339657;28;91950;-89
2021/05/02 00:25:05;;;;;;;7.70;7.00;;;10.80;99.90;10.90;99356.00;;;;343849;28;83716;-88
2021/05/02 00:25:20;;;;;;;10.00;7.65;;;10.80;99.90;10.80;99369.00;;;;342061;28;92161;-88
2021/05/02 00:25:33;;;;;;;9.55;7.40;;;10.80;99.90;11.00;99360.00;;;;344244;28;84074;-87
2021/05/02 00:25:44;;;;;;;7.32;6.63;;;10.80;99.90;11.10;99364.00;;;;345231;28;90867;-89
2021/05/02 00:25:56;;;;;;;7.18;6.47;;;10.80;99.90;11.10;99358.00;;;;344111;28;83974;-88
2021/05/02 00:26:08;;;;;;;7.30;6.63;;;10.80;99.90;11.00;99358.00;;;;343776;28;91934;-88
2021/05/02 00:26:19;;;;;;;7.93;7.13;;;10.80;99.90;11.00;99352.00;;;;344632;28;83327;-88
2021/05/02 00:26:31;;;;;;;8.15;7.32;;;10.80;99.90;11.20;99361.00;;;;343466;28;93011;-88
2021/05/02 00:26:42;;;;;;;7.43;6.70;;;10.80;99.90;11.20;99351.00;;;;345561;28;84823;-88
2021/05/02 00:26:53;;;;;;;7.00;6.40;;;10.90;99.90;11.20;99359.00;;;;341352;28;88312;-88
2021/05/02 00:27:05;;;;;;;7.10;6.47;;;10.90;99.90;11.30;99357.00;;;;341466;28;83873;-89
2021/05/02 00:27:17;;;;;;;7.38;6.68;;;10.90;99.90;11.20;99358.00;;;;343698;28;91927;-88
2021/05/02 00:27:28;;;;;;;7.53;6.85;;;10.90;99.90;11.20;99360.00;;;;344120;28;83339;-89
2021/05/02 00:27:39;;;;;;;6.90;6.30;;;10.90;99.90;11.20;99356.00;;;;344984;28;90850;-88
2021/05/02 00:27:51;;;;;;;7.18;6.57;;;10.90;99.90;11.20;99363.00;;;;345538;28;83922;-88
2021/05/02 00:28:08;;;;;;;7.20;6.50;;;10.90;99.90;11.20;99366.00;;;;343744;28;90713;-88
2021/05/02 00:28:20;;;;;;;7.55;6.47;;;10.90;99.90;11.20;99358.00;;;;345543;28;84861;-88
2021/05/02 00:28:33;;;;;;;7.53;6.70;;;10.90;99.90;11.20;99360.00;;;;343707;28;93131;-88
2021/05/02 00:28:47;;;;;;;7.78;6.97;;;11.00;99.90;11.30;99356.00;;;;346403;28;83808;-89
2021/05/02 00:28:59;;;;;;;7.53;6.82;;;11.00;99.90;11.20;99356.00;;;;343932;28;90757;-88
2021/05/02 00:29:10;;;;;;;7.90;7.10;;;11.00;99.90;11.20;99358.00;;;;342868;28;84224;-88
2021/05/02 00:29:21;;;;;;;7.22;6.53;;;11.00;99.90;11.30;99367.00;;;;341832;28;92019;-88
2021/05/02 00:29:33;;;;;;;7.20;6.50;;;11.00;99.90;11.40;99359.00;;;;341912;28;84708;-88
2021/05/02 00:29:44;;;;;;;6.82;6.13;;;11.00;99.90;11.30;99359.00;;;;343920;28;88500;-88
2021/05/02 00:29:56;;;;;;;7.22;6.50;;;11.00;99.90;11.30;99364.00;;;;343953;28;85001;-88
2021/05/02 00:30:08;;;;;;;7.28;6.57;;;11.00;99.90;11.20;99365.00;;;;342464;28;92147;-88
2021/05/02 00:30:22;;;;;;;8.45;7.65;;;11.10;99.90;11.20;99371.00;;;;342372;28;84745;-88
2021/05/02 00:30:33;;;;;;;8.68;7.88;;;11.00;99.90;11.30;99367.00;;;;345079;28;93568;-88
2021/05/02 00:30:45;;;;;;;7.32;6.70;;;11.00;99.90;11.40;99362.00;;;;344056;28;83521;-89
2021/05/02 00:30:57;;;;;;;7.00;6.40;;;11.10;99.90;11.30;99358.00;;;;345233;28;92392;-88
2021/05/02 00:31:09;;;;;;;7.28;6.57;;;11.10;99.90;11.40;99353.00;;;;344145;28;84169;-88
2021/05/02 00:31:21;;;;;;;7.60;6.82;;;11.10;99.90;11.40;99359.00;;;;343660;28;90069;-87
2021/05/02 00:31:32;;;;;;;6.82;6.20;;;11.10;99.90;11.40;99355.00;;;;344273;28;84751;-88
2021/05/02 00:31:45;;;;;;;7.22;6.25;;;11.10;99.90;11.50;99362.00;;;;343845;28;92022;-88
2021/05/02 00:31:57;;;;;;;7.53;6.70;;;11.10;99.90;11.50;99362.00;;;;344199;28;83352;-89
2021/05/02 00:32:09;;;;;;;7.32;6.72;;;11.10;99.90;11.50;99365.00;;;;340943;28;91925;-88
2021/05/02 00:32:21;;;;;;;7.45;6.82;;;11.20;99.90;11.40;99360.00;;;;343767;28;84780;-87
2021/05/02 00:32:33;;;;;;;7.65;6.97;;;11.20;99.90;11.40;99368.00;;;;345418;28;92251;-88
2021/05/02 00:32:47;;;;;;;7.13;6.53;;;11.20;99.90;11.40;99372.00;;;;344167;28;84971;-88
2021/05/02 00:32:58;;;;;;;7.63;6.93;;;11.20;99.90;11.30;99361.00;;;;343954;28;89671;-88
2021/05/02 00:33:10;;;;;;;7.22;6.53;;;11.20;99.90;11.30;99364.00;;;;345612;28;85077;-87
2021/05/02 00:33:22;;;;;;;7.22;6.53;;;11.20;99.90;11.40;99368.00;;;;343795;28;90869;-88
2021/05/02 00:33:35;;;;;;;6.38;5.78;;;11.20;99.90;11.40;99368.00;;;;343101;28;83502;-88
2021/05/02 00:33:46;;;;;;;6.80;5.50;;;11.20;99.90;11.50;99359.00;;;;344174;28;90241;-89
2021/05/02 00:33:57;;;;;;;6.72;6.03;;;11.20;99.90;11.60;99362.00;;;;344377;28;84485;-86
2021/05/02 00:34:12;;;;;;;7.38;6.63;;;11.20;99.90;11.40;99360.00;;;;344170;28;91632;-88
2021/05/02 00:34:24;;;;;;;6.95;6.30;;;11.20;99.90;11.50;99362.00;;;;344387;28;85555;-88
2021/05/02 00:34:36;;;;;;;7.07;6.30;;;11.30;99.90;11.50;99363.00;;;;342520;28;92394;-88
2021/05/02 00:34:47;;;;;;;7.22;6.28;;;11.30;99.90;11.60;99363.00;;;;345591;28;83858;-88
2021/05/02 00:34:58;;;;;;;6.65;5.93;;;11.30;99.90;11.60;99359.00;;;;344148;28;92312;-88
2021/05/02 00:35:10;;;;;;;6.95;6.25;;;11.30;99.90;11.40;99363.00;;;;345698;28;83305;-88
2021/05/02 00:35:24;;;;;;;6.72;6.03;;;11.30;99.90;11.30;99362.00;;;;344535;28;91430;-87
2021/05/02 00:35:35;;;;;;;7.15;6.22;;;11.30;99.90;11.40;99356.00;;;;343810;28;84846;-89
2021/05/02 00:35:48;;;;;;;7.03;6.32;;;11.30;99.90;11.50;99359.00;;;;345445;28;91240;-88
2021/05/02 00:36:00;;;;;;;7.35;6.45;;;11.30;99.90;11.50;99368.00;;;;347186;28;83817;-88
2021/05/02 00:36:11;;;;;;;7.32;6.15;;;11.30;99.90;11.40;99364.00;;;;342612;28;92258;-88
2021/05/02 00:36:23;;;;;;;7.78;6.25;;;11.30;99.90;11.50;99368.00;;;;344095;28;83583;-88
2021/05/02 00:36:34;;;;;;;7.03;6.20;;;11.30;99.90;11.60;99358.00;;;;343933;28;92219;-89
2021/05/02 00:36:45;;;;;;;6.82;6.07;;;11.30;99.90;11.60;99363.00;;;;344390;28;84894;-88
2021/05/02 00:36:57;;;;;;;6.57;5.97;;;11.30;99.90;11.60;99363.00;;;;342648;28;90844;-88
2021/05/02 00:37:08;;;;;;;6.70;6.03;;;11.40;99.90;11.40;99356.00;;;;344486;28;83495;-88
2021/05/02 00:37:21;;;;;;;6.55;5.95;;;11.30;99.90;11.50;99361.00;;;;343718;28;91330;-88
2021/05/02 00:37:32;;;;;;;6.82;6.13;;;11.40;99.90;11.50;99369.00;;;;343054;28;84971;-87
2021/05/02 00:37:43;;;;;;;7.30;6.28;;;11.40;99.90;11.60;99361.00;;;;345391;28;92580;-88
2021/05/02 00:37:55;;;;;;;7.50;6.13;;;11.40;99.90;11.60;99369.00;;;;344389;28;85152;-89
2021/05/02 00:38:06;;;;;;;7.63;6.13;;;11.40;99.90;11.60;99362.00;;;;344187;28;90501;-88
2021/05/02 00:38:18;;;;;;;7.20;6.50;;;11.40;99.90;11.50;99365.00;;;;343981;28;83701;-89
2021/05/02 00:38:29;;;;;;;7.55;6.63;;;11.40;99.90;11.40;99360.00;;;;343462;28;91445;-89
2021/05/02 00:38:41;;;;;;;7.13;6.32;;;11.40;99.90;11.50;99359.00;;;;342963;28;84517;-87
2021/05/02 00:38:53;;;;;;;7.57;6.30;;;11.40;99.90;11.30;99364.00;;;;343943;28;92172;-87
2021/05/02 00:39:05;;;;;;;7.63;6.43;;;11.40;99.90;11.40;99367.00;;;;343119;28;85149;-88
2021/05/02 00:39:17;;;;;;;6.93;6.22;;;11.40;99.90;11.50;99361.00;;;;344011;28;90718;-88
2021/05/02 00:39:29;;;;;;;6.13;5.55;;;11.40;99.90;11.50;99364.00;;;;341536;28;84415;-88
2021/05/02 00:39:41;;;;;;;5.57;5.07;;;11.40;99.90;11.40;99365.00;;;;346378;28;90749;-88
2021/05/02 00:39:52;;;;;;;5.60;5.10;;;11.40;99.90;11.30;99358.00;;;;341657;28;85119;-89
2021/05/02 00:40:05;;;;;;;6.30;5.75;;;11.40;99.90;11.40;99361.00;;;;345277;28;89937;-88
2021/05/02 00:40:44;;;;;;;6.80;6.20;;;11.40;99.90;11.40;99362.00;;;;342994;28;85011;-87
2021/05/02 00:40:59;;;;;;;6.78;6.18;;;11.30;99.90;11.40;99357.00;;;;340278;28;90843;-88
2021/05/02 00:41:21;;;;;;;7.15;6.55;;;11.30;99.90;11.40;99364.00;;;;341663;28;85072;-89
2021/05/02 00:41:35;;;;;;;6.97;6.28;;;11.30;99.90;11.40;99358.00;;;;343109;28;91889;-88
2021/05/02 00:41:47;;;;;;;7.95;6.72;;;11.30;99.90;11.40;99364.00;;;;342745;28;83450;-88
2021/05/02 00:42:01;;;;;;;7.68;6.88;;;11.30;99.90;11.40;99362.00;;;;343934;28;90822;-88
2021/05/02 00:42:20;;;;;;;7.03;6.32;;;11.30;99.90;11.30;99355.00;;;;344452;28;84972;-88
2021/05/02 00:42:31;;;;;;;6.53;5.93;;;11.20;99.90;11.40;99357.00;;;;342640;28;92041;-88
2021/05/02 00:42:53;;;;;;;6.75;6.13;;;11.20;99.90;11.50;99357.00;;;;344295;28;84053;-88
2021/05/02 00:43:12;;;;;;;6.80;6.20;;;11.20;99.90;11.60;99358.00;;;;342731;28;91803;-88
2021/05/02 00:43:50;;;;;;;7.13;6.43;;;11.20;99.90;11.60;99363.00;;;;345731;28;84830;-88
2021/05/02 00:44:49;;;;;;;6.88;6.18;;;11.30;99.90;11.00;99363.00;;;;341120;28;91942;-89
2021/05/02 00:45:05;;;;;;;6.65;5.95;;;11.30;99.90;10.90;99363.00;;;;341709;28;84133;-88
2021/05/02 00:45:33;;;;;;;6.97;6.22;;;11.10;99.60;11.00;99364.00;;;;343215;28;91595;-89
2021/05/02 00:45:58;;;;;;;6.28;5.68;;;11.10;99.60;11.30;99351.00;;;;344275;28;84431;-88
2021/05/02 00:46:16;;;;;;;6.22;5.65;;;11.10;99.80;11.20;99351.00;;;;342566;28;91841;-88
2021/05/02 00:46:34;;;;;;;6.20;5.70;;;11.10;99.90;11.30;99348.00;;;;342836;28;85051;-88
2021/05/02 00:46:56;;;;;;;7.03;6.43;;;11.10;99.90;11.10;99356.00;;;;342555;28;92050;-88
2021/05/02 00:47:14;;;;;;;6.70;6.10;;;11.10;99.90;11.00;99364.00;;;;344410;28;85098;-88
2021/05/02 00:47:37;;;;;;;6.50;5.90;;;11.10;99.90;11.20;99352.00;;;;341875;28;91009;-88
2021/05/02 00:47:49;;;;;;;6.88;6.28;;;11.10;99.90;11.00;99362.00;;;;343037;28;83684;-88
2021/05/02 00:48:32;;;;;;;6.72;6.13;;;11.00;99.60;11.00;99360.00;;;;342603;28;92566;-88
2021/05/02 00:48:53;;;;;;;5.90;5.40;;;11.00;99.70;11.00;99354.00;;;;343010;28;83626;-87
2021/05/02 00:49:16;;;;;;;5.97;5.47;;;11.00;99.70;10.80;99368.00;;;;344015;28;92006;-88
2021/05/02 00:50:05;;;;;;;6.22;5.63;;;10.90;99.90;10.80;99365.00;;;;343013;28;84587;-88
2021/05/02 00:50:20;;;;;;;6.20;5.68;;;10.90;99.90;10.80;99364.00;;;;342480;28;90923;-89
2021/05/02 00:50:48;;;;;;;6.53;5.93;;;10.80;99.90;10.90;99359.00;;;;344749;28;83462;-88
2021/05/02 00:51:04;;;;;;;6.78;6.07;;;10.80;99.90;10.80;99362.00;;;;343992;28;92477;-88
2021/05/02 00:51:17;;;;;;;6.70;6.10;;;10.80;99.90;10.80;99359.00;;;;347034;28;84876;-88
2021/05/02 00:51:29;;;;;;;6.35;5.80;;;10.70;99.90;10.90;99371.00;;;;344223;28;89323;-87
2021/05/02 00:51:45;;;;;;;6.55;5.95;;;10.70;99.90;11.00;99363.00;;;;343020;28;84871;-87
2021/05/02 00:52:00;;;;;;;6.47;5.85;;;10.70;99.90;11.00;99370.00;;;;341235;28;91250;-87
2021/05/02 00:52:20;;;;;;;6.70;6.03;;;10.70;99.90;10.90;99360.00;;;;343116;28;84073;-87
2021/05/02 00:52:48;;;;;;;6.97;6.32;;;10.80;99.90;11.10;99366.00;;;;339928;28;92504;-89
2021/05/02 00:53:02;;;;;;;6.00;5.50;;;10.80;99.90;11.10;99370.00;;;;343077;28;85394;-87
2021/05/02 00:53:23;;;;;;;6.38;5.68;;;10.80;99.90;10.90;99366.00;;;;342551;28;92059;-90
2021/05/02 00:54:07;;;;;;;6.20;5.55;;;10.80;99.90;11.10;99360.00;;;;343972;28;84075;-88
2021/05/02 00:54:28;;;;;;;6.57;5.78;;;10.80;99.90;11.10;99364.00;;;;342898;28;91916;-88
2021/05/02 00:54:45;;;;;;;6.28;5.68;;;10.80;99.90;11.20;99364.00;;;;342860;28;83984;-88
2021/05/02 00:55:09;;;;;;;6.65;5.65;;;10.80;99.90;11.20;99363.00;;;;342673;28;91697;-88
2021/05/02 00:55:47;;;;;;;5.63;5.13;;;10.90;99.90;11.10;99373.00;;;;342907;28;83979;-88
2021/05/02 00:55:58;;;;;;;6.82;6.22;;;10.90;99.90;11.00;99369.00;;;;342580;28;92982;-88
2021/05/02 00:56:23;;;;;;;6.22;5.63;;;10.90;99.90;10.90;99364.00;;;;347162;28;83908;-88
2021/05/02 00:56:59;;;;;;;6.50;5.90;;;10.90;99.90;10.80;99371.00;;;;344464;28;91193;-88
2021/05/02 00:57:15;;;;;;;6.78;6.18;;;10.90;99.90;11.00;99359.00;;;;342697;28;82648;-89
2021/05/02 00:57:27;;;;;;;6.22;5.70;;;10.80;99.90;10.90;99363.00;;;;345311;28;90287;-88
2021/05/02 00:57:53;;;;;;;6.13;5.63;;;10.80;99.90;11.00;99365.00;;;;345749;28;83478;-89
2021/05/02 00:58:06;;;;;;;6.60;5.80;;;10.80;99.90;11.00;99368.00;;;;345142;28;91255;-88
2021/05/02 00:59:19;;;;;;;7.32;5.80;;;10.80;99.90;11.20;99374.00;;;;341729;28;83394;-88
2021/05/02 00:59:44;;;;;;;6.40;5.80;;;10.80;99.90;11.20;99368.00;;;;336889;28;91726;-88
2021/05/02 01:00:06;;;;;;;6.53;5.88;;;10.90;99.90;11.00;99378.00;;;;338819;28;85450;-88
2021/05/02 01:00:18;;;;;;;6.60;5.90;;;10.90;99.90;11.00;99364.00;;;;338060;28;93683;-88
2021/05/02 01:00:35;;;;;;;6.15;5.55;;;10.90;99.90;11.00;99365.00;;;;337712;28;85563;-87
2021/05/02 01:00:46;;;;;;;5.60;5.10;;;10.90;99.90;11.00;99367.00;;;;338607;28;89849;-90
2021/05/02 01:00:59;;;;;;;6.43;5.82;;;10.90;99.90;11.00;99364.00;;;;340190;28;83705;-88
2021/05/02 01:01:17;;;;;;;6.72;6.13;;;10.90;99.90;10.90;99365.00;;;;337166;28;92096;-88
2021/05/02 01:01:48;;;;;;;6.13;5.63;;;10.90;99.90;10.90;99365.00;;;;340272;28;84928;-88
2021/05/02 01:02:02;;;;;;;7.55;6.20;;;10.90;99.90;11.00;99367.00;;;;339940;28;87773;-88
2021/05/02 01:02:15;;;;;;;7.03;6.35;;;10.90;99.90;11.00;99372.00;;;;338937;28;85556;-89
2021/05/02 01:02:28;;;;;;;6.88;6.22;;;10.90;99.90;11.00;99368.00;;;;339656;28;90820;-88
2021/05/02 01:02:41;;;;;;;7.15;6.45;;;10.90;99.90;11.00;99362.00;;;;337656;28;84958;-87
2021/05/02 01:02:57;;;;;;;6.75;6.13;;;10.90;99.90;11.00;99367.00;;;;339180;28;92208;-89
2021/05/02 01:03:08;;;;;;;6.35;5.75;;;10.90;99.90;11.00;99373.00;;;;340171;28;84811;-88
2021/05/02 01:03:19;;;;;;;6.00;5.40;;;10.80;99.90;11.10;99374.00;;;;339711;28;91135;-88
2021/05/02 01:03:33;;;;;;;5.85;5.35;;;10.90;99.90;11.10;99372.00;;;;340255;28;85318;-88
2021/05/02 01:03:45;;;;;;;6.40;5.80;;;10.90;99.90;10.90;99369.00;;;;338526;28;92260;-89
2021/05/02 01:03:58;;;;;;;7.05;6.45;;;10.80;99.90;10.90;99369.00;;;;338930;28;84537;-89
2021/05/02 01:04:10;;;;;;;7.25;6.63;;;10.90;99.90;10.90;99369.00;;;;338648;28;91077;-87
2021/05/02 01:04:29;;;;;;;6.78;6.18;;;10.90;99.90;11.00;99379.00;;;;340325;28;84437;-87
2021/05/02 01:04:43;;;;;;;6.50;5.90;;;10.90;99.90;11.00;99366.00;;;;339974;28;91938;-88
2021/05/02 01:04:58;;;;;;;6.47;5.88;;;10.80;99.90;11.00;99373.00;;;;338927;28;84603;-88